createdAt,value
2023-03-24T00:02:24.962Z,5.07
2023-03-24T00:05:30.706Z,5.57
2023-03-24T00:08:37.213Z,3.95
2023-03-24T00:11:42.162Z,4.47
2023-03-24T00:14:46.960Z,4.97
2023-03-24T00:17:52.825Z,4.00
2023-03-24T00:20:58.336Z,4.15
2023-03-24T00:24:04.985Z,3.30
2023-03-24T00:27:13.511Z,3.22
2023-03-24T00:30:19.629Z,5.15
2023-03-24T00:33:25.331Z,3.55
2023-03-24T00:36:29.906Z,3.85
2023-03-24T00:39:34.639Z,6.97
2023-03-24T00:42:41.375Z,4.30
2023-03-24T00:45:46.732Z,4.88
2023-03-24T00:48:53.877Z,3.25
2023-03-24T00:51:58.443Z,3.40
2023-03-24T00:55:06.256Z,4.50
2023-03-24T00:58:11.076Z,4.63
2023-03-24T01:01:15.955Z,4.43
2023-03-24T01:04:20.849Z,6.00
2023-03-24T01:07:28.239Z,3.88
2023-03-24T01:10:36.175Z,6.03
2023-03-24T01:13:41.947Z,4.53
2023-03-24T01:16:47.060Z,4.68
2023-03-24T01:19:53.231Z,4.50
2023-03-24T01:22:57.889Z,4.30
2023-03-24T01:26:07.942Z,4.95
2023-03-24T01:29:12.969Z,3.50
2023-03-24T01:32:17.763Z,5.47
2023-03-24T01:35:28.462Z,4.28
2023-03-24T01:38:34.744Z,4.63
2023-03-24T01:41:42.370Z,3.85
2023-03-24T01:44:50.407Z,4.82
2023-03-24T01:47:56.532Z,4.50
2023-03-24T01:51:29.594Z,3.67
2023-03-24T01:55:01.537Z,3.25
2023-03-24T01:58:07.281Z,4.95
2023-03-24T02:01:29.963Z,3.20
2023-03-24T02:04:59.352Z,6.30
2023-03-24T02:08:39.371Z,4.07
2023-03-24T02:11:45.709Z,4.28
2023-03-24T02:14:51.486Z,4.07
2023-03-24T02:18:25.822Z,5.13
2023-03-24T02:22:03.594Z,3.78
2023-03-24T02:25:47.819Z,4.20
2023-03-24T02:32:52.200Z,4.13
2023-03-24T02:36:09.538Z,5.45
2023-03-24T02:40:12.238Z,3.45
2023-03-24T02:43:21.744Z,4.20
2023-03-24T02:46:42.096Z,5.05
2023-03-24T02:50:22.516Z,4.65
2023-03-24T02:53:44.858Z,4.18
2023-03-24T02:57:33.987Z,3.88
2023-03-24T03:01:13.847Z,4.13
2023-03-24T03:04:54.324Z,3.88
2023-03-24T03:08:03.929Z,3.75
2023-03-24T03:11:13.936Z,4.15
2023-03-24T03:14:25.934Z,4.07
2023-03-24T03:17:38.862Z,3.00
2023-03-24T03:20:50.843Z,4.25
2023-03-24T03:24:02.334Z,5.25
2023-03-24T03:27:18.892Z,2.92
2023-03-24T03:31:06.274Z,4.25
2023-03-24T03:34:50.504Z,2.15
2023-03-24T03:38:23.072Z,3.08
2023-03-24T03:41:28.129Z,2.97
2023-03-24T03:44:33.155Z,2.42
2023-03-24T03:47:37.866Z,2.58
2023-03-24T03:50:42.691Z,2.22
2023-03-24T03:53:59.205Z,2.80
2023-03-24T03:57:06.164Z,2.97
2023-03-24T04:00:23.594Z,3.47
2023-03-24T04:04:12.839Z,2.72
2023-03-24T04:07:53.008Z,2.35
2023-03-24T04:12:10.600Z,3.93
2023-03-24T04:15:40.784Z,2.83
2023-03-24T04:23:00.841Z,3.17
2023-03-24T04:26:35.510Z,3.88
2023-03-24T04:30:02.596Z,4.93
2023-03-24T04:33:39.038Z,3.25
2023-03-24T04:36:54.427Z,3.00
2023-03-24T04:40:12.909Z,2.78
2023-03-24T04:43:21.709Z,3.80
2023-03-24T04:46:26.875Z,7.25
2023-03-24T04:49:41.485Z,7.57
2023-03-24T04:52:45.870Z,6.32
2023-03-24T04:56:12.722Z,4.35
2023-03-24T04:59:36.136Z,6.15
2023-03-24T05:02:45.172Z,7.95
2023-03-24T05:05:56.560Z,6.57
2023-03-24T05:09:01.559Z,10.32
2023-03-24T05:12:08.238Z,11.32
2023-03-24T05:15:36.298Z,7.72
2023-03-24T05:18:59.316Z,6.82
2023-03-24T05:22:08.662Z,12.95
2023-03-24T05:25:13.498Z,6.72
2023-03-24T05:28:18.032Z,10.13
2023-03-24T05:31:22.875Z,6.57
2023-03-24T05:34:40.313Z,9.10
2023-03-24T05:37:49.640Z,8.77
2023-03-24T05:41:01.100Z,5.20
2023-03-24T05:44:11.246Z,12.18
2023-03-24T05:47:16.665Z,8.63
2023-03-24T05:50:24.120Z,5.78
2023-03-24T05:53:28.770Z,6.70
2023-03-24T05:56:47.052Z,9.02
2023-03-24T05:59:57.950Z,6.32
2023-03-24T06:03:21.489Z,8.20
2023-03-24T06:06:38.370Z,11.07
2023-03-24T06:09:47.006Z,6.43
2023-03-24T06:12:53.681Z,9.40
2023-03-24T06:16:02.210Z,8.85
2023-03-24T06:19:17.320Z,10.30
2023-03-24T06:22:44.829Z,8.10
2023-03-24T06:25:58.368Z,7.88
2023-03-24T06:29:03.113Z,9.38
2023-03-24T06:32:12.016Z,8.68
2023-03-24T06:35:20.207Z,9.65
2023-03-24T06:38:30.611Z,7.60
2023-03-24T06:41:35.223Z,6.90
2023-03-24T06:44:40.896Z,9.32
2023-03-24T06:47:45.946Z,6.55
2023-03-24T06:50:52.902Z,9.82
2023-03-24T06:53:58.250Z,12.15
2023-03-24T06:57:04.027Z,9.85
2023-03-24T07:00:29.618Z,6.35
2023-03-24T07:03:57.849Z,7.10
2023-03-24T07:08:16.295Z,7.68
2023-03-24T07:11:12.196Z,11.15
2023-03-24T07:14:26.200Z,7.95
2023-03-24T07:17:32.036Z,8.80
2023-03-24T07:20:50.486Z,8.60
2023-03-24T07:23:57.147Z,7.97
2023-03-24T07:27:12.029Z,10.35
2023-03-24T07:30:19.163Z,9.43
2023-03-24T07:33:26.516Z,8.02
2023-03-24T07:36:31.386Z,7.78
2023-03-24T07:39:36.928Z,9.10
2023-03-24T07:42:43.370Z,10.10
2023-03-24T07:46:02.629Z,6.65
2023-03-24T07:49:18.315Z,10.77
2023-03-24T07:52:30.852Z,7.73
2023-03-24T07:55:39.437Z,9.68
2023-03-24T07:58:50.186Z,6.20
2023-03-24T08:02:19.433Z,8.07
2023-03-24T08:05:44.157Z,5.35
2023-03-24T08:08:56.509Z,6.65
2023-03-24T08:12:09.907Z,3.15
2023-03-24T08:15:19.028Z,7.47
2023-03-24T08:18:25.221Z,6.63
2023-03-24T08:21:29.802Z,6.03
2023-03-24T08:24:36.317Z,9.10
2023-03-24T08:27:43.519Z,5.25
2023-03-24T08:30:48.808Z,6.78
2023-03-24T08:33:54.388Z,3.65
2023-03-24T08:36:58.693Z,5.80
2023-03-24T08:40:05.447Z,7.30
2023-03-24T08:43:15.346Z,5.75
2023-03-24T08:46:19.973Z,5.75
2023-03-24T08:49:24.328Z,6.57
2023-03-24T08:52:28.664Z,8.30
2023-03-24T08:55:33.431Z,6.53
2023-03-24T08:58:38.534Z,7.07
2023-03-24T09:01:43.289Z,7.32
2023-03-24T09:04:49.784Z,6.95
2023-03-24T09:07:54.675Z,7.15
2023-03-24T09:10:59.670Z,9.10
2023-03-24T09:14:04.126Z,5.63
2023-03-24T09:17:08.817Z,5.97
2023-03-24T09:20:15.912Z,7.32
2023-03-24T09:23:22.037Z,7.55
2023-03-24T09:26:26.551Z,6.28
2023-03-24T09:29:31.465Z,5.15
2023-03-24T09:32:38.327Z,6.07
2023-03-24T09:35:43.404Z,5.55
2023-03-24T09:38:48.126Z,4.00
2023-03-24T09:41:53.042Z,5.53
2023-03-24T09:44:59.777Z,7.22
2023-03-24T09:48:35.641Z,4.90
2023-03-24T09:51:45.526Z,7.40
2023-03-24T09:55:02.696Z,5.45
2023-03-24T09:58:09.095Z,4.53
2023-03-24T10:01:16.642Z,6.05
2023-03-24T10:04:26.676Z,5.72
2023-03-24T10:07:57.600Z,5.88
2023-03-24T10:11:05.773Z,6.00
2023-03-24T10:14:58.746Z,3.45
2023-03-24T10:18:18.186Z,4.57
2023-03-24T10:21:27.810Z,4.65
2023-03-24T10:25:10.296Z,3.45
2023-03-24T10:28:32.070Z,4.40
2023-03-24T10:31:37.413Z,5.15
2023-03-24T10:34:46.473Z,3.88
2023-03-24T10:37:52.407Z,5.45
2023-03-24T10:40:57.451Z,3.88
2023-03-24T10:44:02.372Z,3.63
2023-03-24T10:47:08.573Z,5.80
2023-03-24T10:50:15.493Z,3.63
2023-03-24T10:53:21.529Z,3.42
2023-03-24T10:56:41.308Z,5.53
2023-03-24T10:59:59.315Z,3.92
2023-03-24T11:03:13.978Z,6.10
2023-03-24T11:06:21.656Z,3.45
2023-03-24T11:09:26.215Z,4.55
2023-03-24T11:12:34.703Z,4.25
2023-03-24T11:16:03.888Z,6.20
2023-03-24T11:19:22.497Z,6.63
2023-03-24T11:22:27.994Z,4.40
2023-03-24T11:25:38.736Z,4.10
2023-03-24T11:28:57.692Z,4.65
2023-03-24T11:32:10.103Z,6.60
2023-03-24T11:35:18.596Z,5.20
2023-03-24T11:38:35.874Z,4.20
2023-03-24T11:42:12.301Z,5.22
2023-03-24T11:45:42.332Z,3.42
2023-03-24T11:48:56.003Z,6.53
2023-03-24T11:52:02.465Z,6.55
2023-03-24T11:55:17.886Z,5.65
2023-03-24T11:58:39.711Z,4.43
2023-03-24T12:02:13.592Z,4.07
2023-03-24T12:05:24.177Z,2.35
2023-03-24T12:08:43.798Z,3.13
2023-03-24T12:12:36.376Z,3.20
2023-03-24T12:15:57.024Z,6.43
2023-03-24T12:19:21.596Z,5.93
2023-03-24T12:22:50.684Z,4.20
2023-03-24T12:26:23.499Z,3.08
2023-03-24T12:30:07.372Z,4.75
2023-03-24T12:33:56.474Z,5.68
2023-03-24T12:37:10.074Z,2.67
2023-03-24T12:40:44.059Z,2.85
2023-03-24T12:44:27.840Z,4.30
2023-03-24T12:48:25.527Z,1.90
2023-03-24T12:51:33.004Z,3.03
2023-03-24T12:54:53.015Z,3.67
2023-03-24T12:58:30.986Z,3.70
2023-03-24T13:02:19.521Z,2.72
2023-03-24T13:05:33.211Z,2.25
2023-03-24T13:08:40.779Z,3.22
2023-03-24T13:12:03.132Z,4.22
2023-03-24T13:15:18.448Z,3.45
2023-03-24T13:18:41.469Z,3.05
2023-03-24T13:21:48.044Z,4.03
2023-03-24T13:24:54.881Z,2.70
2023-03-24T13:28:04.358Z,3.85
2023-03-24T13:31:10.870Z,5.20
2023-03-24T13:34:42.776Z,3.85
2023-03-24T13:37:58.624Z,3.67
2023-03-24T13:41:11.192Z,3.38
2023-03-24T13:44:39.496Z,2.78
2023-03-24T13:48:11.902Z,1.77
2023-03-24T13:51:21.375Z,3.38
2023-03-24T13:54:29.401Z,3.70
2023-03-24T13:57:33.912Z,2.30
2023-03-24T14:01:06.773Z,1.85
2023-03-24T14:04:28.783Z,2.20
2023-03-24T14:07:44.328Z,2.40
2023-03-24T14:10:51.592Z,1.95
2023-03-24T14:13:56.073Z,2.20
2023-03-24T14:17:06.645Z,1.40
2023-03-24T14:20:25.699Z,1.92
2023-03-24T14:23:52.511Z,2.38
2023-03-24T14:26:57.331Z,2.35
2023-03-24T14:30:11.341Z,1.27
2023-03-24T14:36:40.622Z,1.55
2023-03-24T14:39:47.157Z,1.33
2023-03-24T14:43:02.169Z,1.60
2023-03-24T14:46:21.888Z,3.15
2023-03-24T14:49:33.090Z,2.38
2023-03-24T14:52:48.027Z,2.92
2023-03-24T14:55:54.445Z,2.25
2023-03-24T14:59:08.846Z,2.97
2023-03-24T15:02:48.722Z,2.53
2023-03-24T15:05:53.408Z,2.83
2023-03-24T15:09:06.749Z,1.92
2023-03-24T15:12:11.674Z,3.00
2023-03-24T15:15:24.824Z,2.47
2023-03-24T15:18:29.258Z,2.00
2023-03-24T15:21:41.088Z,2.35
2023-03-24T15:24:52.044Z,2.20
2023-03-24T15:27:57.829Z,1.95
2023-03-24T15:31:03.205Z,1.52
2023-03-24T15:34:27.889Z,2.15
2023-03-24T15:37:43.042Z,2.97
2023-03-24T15:41:09.260Z,3.83
2023-03-24T15:44:20.812Z,1.08
2023-03-24T15:47:29.909Z,1.60
2023-03-24T15:50:54.807Z,3.85
2023-03-24T15:54:00.122Z,2.00
2023-03-24T15:57:19.045Z,2.38
2023-03-24T16:00:36.458Z,3.25
2023-03-24T16:03:43.178Z,3.42
2023-03-24T16:06:53.800Z,2.15
2023-03-24T16:10:06.000Z,2.25
2023-03-24T16:13:18.050Z,3.03
2023-03-24T16:16:29.760Z,1.58
2023-03-24T16:19:34.254Z,3.38
2023-03-24T16:22:38.665Z,1.85
2023-03-24T16:25:43.284Z,4.53
2023-03-24T16:28:48.723Z,3.15
2023-03-24T16:31:56.931Z,4.88
2023-03-24T16:35:01.846Z,6.57
2023-03-24T16:38:06.569Z,2.88
2023-03-24T16:41:13.221Z,1.85
2023-03-24T16:44:18.753Z,3.35
2023-03-24T16:47:23.474Z,4.05
2023-03-24T16:50:42.254Z,1.77
2023-03-24T16:53:47.711Z,2.72
2023-03-24T16:57:17.025Z,3.50
2023-03-24T17:00:22.701Z,1.33
2023-03-24T17:03:31.094Z,3.30
2023-03-24T17:06:39.519Z,4.03
2023-03-24T17:09:46.655Z,4.80
2023-03-24T17:12:55.400Z,3.33
2023-03-24T17:15:59.926Z,2.47
2023-03-24T17:19:06.371Z,2.85
2023-03-24T17:22:11.723Z,2.72
2023-03-24T17:25:24.068Z,2.53
2023-03-24T17:28:28.903Z,2.63
2023-03-24T17:31:33.819Z,3.10
2023-03-24T17:34:38.228Z,7.05
2023-03-24T17:37:43.188Z,5.05
2023-03-24T17:40:48.487Z,4.18
2023-03-24T17:43:53.222Z,3.35
2023-03-24T17:46:58.323Z,5.20
2023-03-24T17:50:09.516Z,3.55
2023-03-24T17:53:15.911Z,4.13
2023-03-24T17:56:20.606Z,3.20
2023-03-24T17:59:25.462Z,3.25
2023-03-24T18:02:30.056Z,2.90
2023-03-24T18:05:34.730Z,1.83
2023-03-24T18:08:39.876Z,3.20
2023-03-24T18:11:45.668Z,2.65
2023-03-24T18:14:52.322Z,2.58
2023-03-24T18:17:57.021Z,3.08
2023-03-24T18:21:02.524Z,3.42
2023-03-24T18:24:07.735Z,2.50
2023-03-24T18:27:12.399Z,5.75
2023-03-24T18:30:17.348Z,3.05
2023-03-24T18:33:22.754Z,4.30
2023-03-24T18:36:27.503Z,4.80
2023-03-24T18:39:34.732Z,3.38
2023-03-24T18:42:39.383Z,2.67
2023-03-24T18:45:45.784Z,5.70
2023-03-24T18:48:53.138Z,5.60
2023-03-24T18:51:57.815Z,3.85
2023-03-24T18:55:02.837Z,2.80
2023-03-24T18:58:10.306Z,6.03
2023-03-24T19:01:22.423Z,2.45
2023-03-24T19:04:27.320Z,3.30
2023-03-24T19:07:32.092Z,3.78
2023-03-24T19:10:37.444Z,2.83
2023-03-24T19:13:46.184Z,3.08
2023-03-24T19:16:51.187Z,2.50
2023-03-24T19:19:58.122Z,5.32
2023-03-24T19:23:02.981Z,4.53
2023-03-24T19:26:07.199Z,3.95
2023-03-24T19:29:11.577Z,4.47
2023-03-24T19:32:16.501Z,1.95
2023-03-24T19:35:21.116Z,2.20
2023-03-24T19:38:25.711Z,2.28
2023-03-24T19:41:30.092Z,1.73
2023-03-24T19:44:35.680Z,2.13
2023-03-24T19:47:40.579Z,3.55
2023-03-24T19:50:46.445Z,4.38
2023-03-24T19:53:51.453Z,2.03
2023-03-24T19:56:55.963Z,2.67
2023-03-24T20:00:00.653Z,2.45
2023-03-24T20:03:05.592Z,3.45
2023-03-24T20:06:10.376Z,3.33
2023-03-24T20:09:15.606Z,2.63
2023-03-24T20:12:20.510Z,3.22
2023-03-24T20:15:24.958Z,2.67
2023-03-24T20:18:29.610Z,4.38
2023-03-24T20:21:33.819Z,4.00
2023-03-24T20:24:38.934Z,3.55
2023-03-24T20:27:47.800Z,3.20
2023-03-24T20:30:58.378Z,2.63
2023-03-24T20:34:03.855Z,3.60
2023-03-24T20:37:08.659Z,3.65
2023-03-24T20:40:13.386Z,3.53
2023-03-24T20:43:18.419Z,2.33
2023-03-24T20:46:23.190Z,2.58
2023-03-24T20:49:27.858Z,1.95
2023-03-24T20:52:32.730Z,3.95
2023-03-24T20:55:36.941Z,2.25
2023-03-24T20:58:43.501Z,3.28
2023-03-24T21:01:51.016Z,2.85
2023-03-24T21:04:55.699Z,4.57
2023-03-24T21:07:59.925Z,4.03
2023-03-24T21:11:04.409Z,4.32
2023-03-24T21:14:08.823Z,2.75
2023-03-24T21:17:14.055Z,2.53
2023-03-24T21:20:19.065Z,2.53
2023-03-24T21:23:24.693Z,3.38
2023-03-24T21:26:29.115Z,3.58
2023-03-24T21:29:33.792Z,2.63
2023-03-24T21:32:38.757Z,3.67
2023-03-24T21:35:43.442Z,3.83
2023-03-24T21:38:49.706Z,2.38
2023-03-24T21:41:54.726Z,1.95
2023-03-24T21:44:59.116Z,2.70
2023-03-24T21:48:05.836Z,4.22
2023-03-24T21:51:10.540Z,4.82
2023-03-24T21:54:15.188Z,3.53
2023-03-24T21:57:20.252Z,3.53
2023-03-24T22:00:29.770Z,2.20
2023-03-24T22:03:37.256Z,6.05
2023-03-24T22:06:41.879Z,3.08
2023-03-24T22:09:50.620Z,5.25
2023-03-24T22:12:56.254Z,6.53
2023-03-24T22:16:04.067Z,3.63
2023-03-24T22:19:09.241Z,4.40
2023-03-24T22:22:13.492Z,3.38
2023-03-24T22:25:18.986Z,4.88
2023-03-24T22:28:23.400Z,3.63
2023-03-24T22:31:28.176Z,3.42
2023-03-24T22:34:32.620Z,3.95
2023-03-24T22:37:37.544Z,4.15
2023-03-24T22:40:43.581Z,3.22
2023-03-24T22:43:47.927Z,3.53
2023-03-24T22:46:52.243Z,4.65
2023-03-24T22:49:56.548Z,4.65
2023-03-24T22:53:01.381Z,6.00
2023-03-24T22:56:08.962Z,3.33
2023-03-24T22:59:13.959Z,3.85
2023-03-24T23:02:24.242Z,4.13
2023-03-24T23:05:29.359Z,5.82
2023-03-24T23:08:34.386Z,4.28
2023-03-24T23:11:39.359Z,4.20
2023-03-24T23:14:46.354Z,4.03
2023-03-24T23:17:51.674Z,3.58
2023-03-24T23:21:07.139Z,5.68
2023-03-24T23:24:12.086Z,4.05
2023-03-24T23:27:16.675Z,8.75
2023-03-24T23:30:21.290Z,8.57
2023-03-24T23:33:26.064Z,6.40
2023-03-24T23:36:34.207Z,5.50
2023-03-24T23:39:39.442Z,6.30
2023-03-24T23:42:47.300Z,5.72
2023-03-24T23:45:58.583Z,6.25
2023-03-24T23:49:03.320Z,4.22
2023-03-24T23:52:08.071Z,4.90
2023-03-24T23:55:15.146Z,4.40
2023-03-24T23:58:19.574Z,3.78
